Time;durP1;ratioP1;P1;durP2;ratioP2;P2;SDS_P1;SDS_P2;PMS_P1;PMS_P2;Temp;Humidity;BMP_temperature;BMP_pressure;BME280_temperature;BME280_humidity;BME280_pressure;Samples;Min_cycle;Max_cycle;Signal;HPM_P1;HPM_P2
2022/09/22 00:01:20;;;;;;;5.83;2.10;;;;;;;12.87;60.99;101371.22;5013400;28;20283;-64
2022/09/22 00:03:51;;;;;;;6.03;2.33;;;;;;;12.84;61.33;101379.53;5013357;28;20273;-64
2022/09/22 00:06:21;;;;;;;4.60;2.50;;;;;;;12.82;61.22;101366.34;5014192;28;20624;-63
2022/09/22 00:08:51;;;;;;;4.10;2.00;;;;;;;12.85;61.28;101371.38;5013302;28;20264;-64
2022/09/22 00:11:20;;;;;;;4.40;2.03;;;;;;;12.80;61.39;101369.16;5013357;28;20212;-64
2022/09/22 00:13:52;;;;;;;3.47;2.00;;;;;;;12.74;61.58;101366.22;5012893;28;20214;-64
2022/09/22 00:16:21;;;;;;;2.53;1.53;;;;;;;12.73;61.31;101372.50;5013071;28;20202;-64
2022/09/22 00:18:51;;;;;;;5.93;2.23;;;;;;;12.71;61.49;101367.31;5013048;28;20217;-64
2022/09/22 00:21:21;;;;;;;6.03;2.30;;;;;;;12.66;61.67;101366.91;5012657;28;20229;-64
2022/09/22 00:23:49;;;;;;;4.33;2.00;;;;;;;12.67;61.75;101373.91;5011170;28;20644;-64
2022/09/22 00:26:20;;;;;;;5.47;1.80;;;;;;;12.66;61.87;101369.59;5010564;28;20215;-64
2022/09/22 00:28:50;;;;;;;4.93;2.13;;;;;;;12.65;62.02;101370.56;5013120;28;20217;-63
2022/09/22 00:31:19;;;;;;;4.27;2.10;;;;;;;12.70;61.95;101367.47;5012125;28;20240;-64
2022/09/22 00:33:47;;;;;;;3.20;1.90;;;;;;;12.71;61.79;101369.16;5012684;28;20625;-63
2022/09/22 00:36:17;;;;;;;4.00;2.10;;;;;;;12.71;61.80;101366.47;5013073;28;20206;-62
2022/09/22 00:38:46;;;;;;;3.27;1.83;;;;;;;12.70;61.64;101373.63;5013395;28;20256;-61
2022/09/22 00:41:18;;;;;;;5.27;2.13;;;;;;;12.70;61.66;101368.31;5009545;28;20540;-62
2022/09/22 00:43:47;;;;;;;3.80;1.90;;;;;;;12.67;61.64;101373.06;5012704;28;20220;-64
2022/09/22 00:46:18;;;;;;;3.83;1.77;;;;;;;12.65;61.83;101385.69;5012487;28;20253;-62
2022/09/22 00:48:51;;;;;;;5.00;2.03;;;;;;;12.72;61.71;101381.47;5012815;28;20263;-61
2022/09/22 00:51:23;;;;;;;3.80;1.90;;;;;;;12.73;61.31;101375.19;5010807;28;20584;-63
2022/09/22 00:53:52;;;;;;;4.07;1.80;;;;;;;12.69;61.65;101379.94;5013143;28;20299;-63
2022/09/22 00:56:24;;;;;;;4.10;2.13;;;;;;;12.66;62.05;101384.69;5012207;28;20276;-63
2022/09/22 00:58:56;;;;;;;3.87;2.07;;;;;;;12.66;61.80;101377.56;5011961;28;20206;-62
2022/09/22 01:01:24;;;;;;;4.83;1.93;;;;;;;12.66;61.41;101376.72;5011338;28;20249;-63
2022/09/22 01:03:53;;;;;;;5.23;1.80;;;;;;;12.73;61.13;101369.84;5012709;28;20221;-63
2022/09/22 01:06:26;;;;;;;4.33;2.10;;;;;;;12.74;61.40;101374.19;5012611;28;20256;-63
2022/09/22 01:08:54;;;;;;;3.27;1.60;;;;;;;12.77;61.35;101368.56;5021362;28;20210;-63
2022/09/22 01:11:24;;;;;;;3.00;1.47;;;;;;;12.78;61.13;101372.91;5011064;28;20218;-62
2022/09/22 01:13:58;;;;;;;3.70;2.00;;;;;;;12.74;61.25;101363.56;5012928;28;20210;-62
2022/09/22 01:16:44;;;;;;;5.03;2.00;;;;;;;12.77;60.87;101360.59;5012749;28;20254;-62
2022/09/22 01:19:39;;;;;;;4.33;1.67;;;;;;;12.72;60.96;101362.84;5012309;28;20209;-63
2022/09/22 01:22:21;;;;;;;6.30;1.70;;;;;;;12.68;61.14;101359.63;5010883;28;20237;-63
2022/09/22 01:25:05;;;;;;;4.57;1.90;;;;;;;12.67;61.48;101362.41;5017880;28;20200;-63
2022/09/22 01:27:57;;;;;;;6.27;2.07;;;;;;;12.67;61.20;101357.09;5011580;28;20234;-63
2022/09/22 01:30:33;;;;;;;4.27;1.83;;;;;;;12.62;61.50;101356.69;5011116;28;20268;-63
2022/09/22 01:33:12;;;;;;;4.80;2.30;;;;;;;12.66;61.62;101350.09;5011512;28;20271;-63
2022/09/22 01:35:48;;;;;;;5.20;1.93;;;;;;;12.62;61.71;101344.22;5012641;28;20221;-63
2022/09/22 01:38:24;;;;;;;5.23;2.00;;;;;;;12.62;61.73;101346.03;5011772;28;20213;-63
2022/09/22 01:40:57;;;;;;;4.10;1.93;;;;;;;12.54;62.16;101343.25;5010814;28;20213;-63
2022/09/22 01:43:36;;;;;;;5.70;2.27;;;;;;;12.49;62.89;101343.63;5010771;28;20233;-63
2022/09/22 01:46:11;;;;;;;3.47;1.87;;;;;;;12.51;63.03;101340.84;5011673;28;20213;-63
2022/09/22 01:48:45;;;;;;;5.70;2.30;;;;;;;12.52;63.03;101345.19;5011935;28;20205;-63
2022/09/22 01:51:17;;;;;;;7.17;2.17;;;;;;;12.56;62.89;101338.63;5010177;28;20574;-63
2022/09/22 01:53:52;;;;;;;4.37;1.90;;;;;;;12.58;62.88;101336.63;5011853;28;20201;-64
2022/09/22 01:56:22;;;;;;;5.40;2.07;;;;;;;12.56;62.97;101338.63;5011904;28;20653;-62
2022/09/22 01:58:53;;;;;;;4.10;1.80;;;;;;;12.57;63.11;101341.16;5011243;28;20251;-62
2022/09/22 02:01:27;;;;;;;4.33;1.93;;;;;;;12.62;63.08;101338.91;5002778;28;20591;-62
2022/09/22 02:04:01;;;;;;;5.80;2.20;;;;;;;12.57;63.57;101340.31;5011371;28;20291;-64
2022/09/22 02:06:32;;;;;;;7.97;2.10;;;;;;;12.48;63.85;101327.84;5010983;28;20610;-62
2022/09/22 02:09:05;;;;;;;5.00;2.50;;;;;;;12.44;64.07;101336.09;5002674;28;20778;-63
2022/09/22 02:11:33;;;;;;;8.73;2.00;;;;;;;12.40;64.26;101332.00;5010900;28;20619;-62
2022/09/22 02:14:02;;;;;;;7.97;2.50;;;;;;;12.41;64.41;101333.69;5011621;28;20208;-63
2022/09/22 02:16:32;;;;;;;4.63;2.20;;;;;;;12.39;64.25;101333.00;5011253;28;20209;-63
2022/09/22 02:19:05;;;;;;;4.57;2.20;;;;;;;12.41;64.41;101328.38;5011701;28;20626;-63
2022/09/22 02:21:41;;;;;;;4.00;2.20;;;;;;;12.46;64.37;101332.44;5010974;28;20209;-62
2022/09/22 02:24:27;;;;;;;4.90;1.97;;;;;;;12.47;64.24;101326.16;5011332;28;20702;-63
2022/09/22 02:26:56;;;;;;;4.70;2.30;;;;;;;12.43;64.53;101331.75;5008878;28;20216;-63
2022/09/22 02:29:25;;;;;;;4.50;2.40;;;;;;;12.42;64.51;101322.09;5004363;28;20206;-63
2022/09/22 02:31:55;;;;;;;6.27;2.50;;;;;;;12.44;64.53;101325.44;5009539;28;20307;-63
2022/09/22 02:34:23;;;;;;;6.67;2.87;;;;;;;12.48;64.33;101333.16;5010922;28;20237;-63
2022/09/22 02:36:57;;;;;;;4.50;2.00;;;;;;;12.45;64.37;101331.59;5010197;28;20205;-63
2022/09/22 02:39:28;;;;;;;6.57;2.80;;;;;;;12.44;64.50;101329.94;5010395;28;20219;-63
2022/09/22 02:42:15;;;;;;;4.50;2.20;;;;;;;12.51;64.21;101322.22;5000018;28;20256;-63
2022/09/22 02:44:50;;;;;;;6.03;2.83;;;;;;;12.55;63.92;101323.63;5008008;28;20256;-64
2022/09/22 02:47:26;;;;;;;4.07;2.23;;;;;;;12.48;64.37;101330.50;5010403;28;20212;-65
2022/09/22 02:49:55;;;;;;;5.20;2.40;;;;;;;12.46;64.55;101327.13;5010755;28;20216;-63
2022/09/22 02:52:24;;;;;;;6.30;2.57;;;;;;;12.48;64.45;101330.50;5011214;28;20213;-62
2022/09/22 02:54:53;;;;;;;4.07;2.47;;;;;;;12.48;64.44;101328.69;5009961;28;20209;-62
2022/09/22 02:57:21;;;;;;;5.70;2.67;;;;;;;12.51;64.22;101319.56;5009928;28;20213;-63
2022/09/22 02:59:49;;;;;;;5.03;2.60;;;;;;;12.47;64.01;101320.84;5010798;28;20227;-62
2022/09/22 03:02:17;;;;;;;4.90;2.63;;;;;;;12.39;64.58;101327.69;5001851;28;20244;-62
2022/09/22 03:04:46;;;;;;;5.77;2.37;;;;;;;12.39;64.58;101321.53;5010958;28;20236;-62
2022/09/22 03:07:13;;;;;;;5.63;3.10;;;;;;;12.37;64.89;101324.31;5010094;28;20635;-63
2022/09/22 03:09:41;;;;;;;5.17;2.87;;;;;;;12.35;65.08;101325.44;5010832;28;20683;-63
2022/09/22 03:12:11;;;;;;;5.63;3.47;;;;;;;12.28;65.18;101319.00;5010345;28;20280;-62
2022/09/22 03:14:39;;;;;;;6.33;2.90;;;;;;;12.26;65.44;101316.47;5010950;28;20197;-62
2022/09/22 03:17:07;;;;;;;4.57;2.33;;;;;;;12.30;65.34;101323.22;5009879;28;20213;-63
2022/09/22 03:19:34;;;;;;;6.47;3.00;;;;;;;12.29;65.28;101321.53;5010106;28;20651;-63
2022/09/22 03:22:04;;;;;;;5.03;2.83;;;;;;;12.30;65.17;101312.56;5009934;28;20577;-62
2022/09/22 03:24:31;;;;;;;5.00;2.53;;;;;;;12.30;65.16;101312.56;4996916;28;20640;-63
2022/09/22 03:26:59;;;;;;;8.23;3.00;;;;;;;12.37;65.04;101308.38;5009861;28;20722;-62
2022/09/22 03:29:27;;;;;;;6.27;2.67;;;;;;;12.39;64.97;101300.25;5009983;28;20619;-62
2022/09/22 03:31:54;;;;;;;6.23;3.17;;;;;;;12.32;65.46;101302.63;5008839;28;20295;-63
2022/09/22 03:34:22;;;;;;;7.27;3.70;;;;;;;12.30;65.59;101304.59;5010060;28;20214;-63
2022/09/22 03:36:50;;;;;;;7.13;3.00;;;;;;;12.24;65.74;101302.47;5008853;28;20255;-63
2022/09/22 03:39:19;;;;;;;5.43;2.70;;;;;;;12.23;65.89;101308.75;5010075;28;20209;-62
2022/09/22 03:41:48;;;;;;;5.93;3.30;;;;;;;12.22;65.94;101304.44;5009583;28;20225;-62
2022/09/22 03:44:16;;;;;;;4.33;2.80;;;;;;;12.23;66.06;101303.44;5010018;28;20232;-63
2022/09/22 03:46:44;;;;;;;5.60;3.27;;;;;;;12.15;66.35;101307.78;5009497;28;20205;-63
2022/09/22 03:49:12;;;;;;;5.43;3.10;;;;;;;12.15;66.40;101313.94;5005824;28;20665;-63
2022/09/22 03:51:39;;;;;;;7.23;2.97;;;;;;;12.12;66.66;101303.59;5009816;28;20260;-63
2022/09/22 03:54:07;;;;;;;6.50;2.90;;;;;;;12.09;66.94;101305.66;5010418;28;20264;-62
2022/09/22 03:56:36;;;;;;;4.47;2.47;;;;;;;12.10;66.88;101307.34;5009858;28;20214;-62
2022/09/22 03:59:04;;;;;;;6.07;3.23;;;;;;;12.11;66.80;101301.06;5009187;28;20209;-62
2022/09/22 04:01:32;;;;;;;5.03;2.70;;;;;;;12.16;66.35;101304.97;5009471;28;20213;-63
2022/09/22 04:04:00;;;;;;;7.23;3.03;;;;;;;12.12;66.76;101303.59;5009287;28;20229;-62
2022/09/22 04:06:28;;;;;;;10.10;3.27;;;;;;;12.20;66.32;101298.44;5007859;28;20222;-62
2022/09/22 04:08:56;;;;;;;7.27;3.87;;;;;;;12.13;66.44;101296.47;5012516;28;20206;-62
2022/09/22 04:11:24;;;;;;;7.67;3.60;;;;;;;12.04;67.06;101298.13;5013102;28;20237;-62
2022/09/22 04:13:53;;;;;;;6.50;3.10;;;;;;;11.99;67.14;101297.69;5013583;28;20622;-62
2022/09/22 04:16:21;;;;;;;7.47;3.10;;;;;;;12.01;67.06;101298.38;5014005;28;20268;-62
2022/09/22 04:18:49;;;;;;;5.23;3.00;;;;;;;11.98;67.00;101293.34;5012446;28;20232;-62
2022/09/22 04:21:16;;;;;;;4.47;2.87;;;;;;;11.89;67.63;101294.16;5013227;28;20239;-63
2022/09/22 04:23:44;;;;;;;6.23;2.90;;;;;;;11.90;67.66;101295.84;5013178;28;20267;-63
2022/09/22 04:26:12;;;;;;;5.80;3.23;;;;;;;11.94;67.39;101294.59;5012058;28;20221;-63
2022/09/22 04:28:39;;;;;;;5.47;3.33;;;;;;;11.96;67.19;101296.13;5012285;28;20225;-63
2022/09/22 04:31:08;;;;;;;6.13;3.37;;;;;;;11.94;66.81;101286.63;5012149;28;20233;-63
2022/09/22 04:33:36;;;;;;;6.03;3.77;;;;;;;11.89;66.90;101292.34;5013718;28;20580;-63
2022/09/22 04:36:04;;;;;;;7.03;4.13;;;;;;;11.93;66.79;101293.75;5013199;28;20221;-63
2022/09/22 04:38:32;;;;;;;5.73;3.40;;;;;;;11.89;66.94;101291.50;5011850;28;20247;-63
2022/09/22 04:41:00;;;;;;;7.57;4.47;;;;;;;11.89;66.87;101294.16;5012422;28;20262;-63
2022/09/22 04:43:28;;;;;;;7.17;3.87;;;;;;;11.91;66.62;101289.56;5013017;28;20621;-63
2022/09/22 04:45:55;;;;;;;5.63;3.17;;;;;;;11.90;66.50;101293.19;5012473;28;20216;-63
2022/09/22 04:48:25;;;;;;;6.17;3.53;;;;;;;11.86;66.48;101287.31;5012308;28;20240;-63
2022/09/22 04:50:52;;;;;;;5.57;3.23;;;;;;;11.82;66.85;101290.38;5011823;28;20221;-62
2022/09/22 04:53:20;;;;;;;9.03;3.93;;;;;;;11.78;66.96;101292.47;5013018;28;20218;-62
2022/09/22 04:55:49;;;;;;;5.93;3.33;;;;;;;11.81;66.71;101291.34;5012495;28;20255;-62
2022/09/22 04:58:17;;;;;;;5.90;2.83;;;;;;;11.78;66.72;101295.13;5011715;28;20219;-63
2022/09/22 05:00:44;;;;;;;7.17;3.23;;;;;;;11.77;66.98;101295.25;5009096;28;20206;-63
2022/09/22 05:03:13;;;;;;;7.10;3.07;;;;;;;11.75;66.66;101294.56;5012192;28;20220;-62
2022/09/22 05:05:48;;;;;;;6.50;3.40;;;;;;;11.73;66.97;101294.66;5012087;28;20309;-62
2022/09/22 05:08:16;;;;;;;5.87;3.33;;;;;;;11.73;67.30;101293.81;5011391;28;20211;-62
2022/09/22 05:10:44;;;;;;;4.93;2.77;;;;;;;11.68;67.21;101300.38;5011647;28;20212;-63
2022/09/22 05:13:12;;;;;;;8.77;3.03;;;;;;;11.64;67.38;101298.97;5012670;28;20645;-63
2022/09/22 05:15:40;;;;;;;6.53;2.80;;;;;;;11.64;67.24;101298.97;5012154;28;20214;-63
2022/09/22 05:18:09;;;;;;;7.43;3.30;;;;;;;11.73;66.92;101304.44;5010921;28;20213;-63
2022/09/22 05:20:36;;;;;;;8.07;3.20;;;;;;;11.75;66.76;101305.19;5011143;28;20241;-63
2022/09/22 05:23:06;;;;;;;10.60;3.57;;;;;;;11.76;66.57;101298.91;5011611;28;20763;-63
2022/09/22 05:25:33;;;;;;;7.13;3.47;;;;;;;11.76;66.46;101301.56;5011828;28;20688;-63
2022/09/22 05:28:01;;;;;;;8.93;3.20;;;;;;;11.77;66.47;101303.25;5010725;28;20248;-63
2022/09/22 05:30:29;;;;;;;5.97;3.70;;;;;;;11.68;66.85;101300.38;5003144;28;20263;-63
2022/09/22 05:32:57;;;;;;;10.67;3.93;;;;;;;11.74;66.77;101303.47;5010976;28;20245;-63
2022/09/22 05:35:25;;;;;;;5.40;3.40;;;;;;;11.68;66.92;101311.00;5011717;28;20707;-63
2022/09/22 05:37:59;;;;;;;7.33;3.63;;;;;;;11.66;67.02;101307.66;5010931;28;20240;-63
2022/09/22 05:40:28;;;;;;;6.97;3.80;;;;;;;11.64;67.43;101308.75;5009667;28;20658;-63
2022/09/22 05:42:56;;;;;;;5.57;3.53;;;;;;;11.55;67.89;101313.03;5010376;28;20696;-63
2022/09/22 05:45:24;;;;;;;9.03;3.50;;;;;;;11.63;67.54;101315.88;5012808;28;20232;-62
2022/09/22 05:47:53;;;;;;;7.00;3.80;;;;;;;11.65;67.66;101313.94;5011668;28;20213;-63
2022/09/22 05:50:22;;;;;;;6.13;3.53;;;;;;;11.68;67.67;101313.66;5012033;28;20216;-62
2022/09/22 05:52:50;;;;;;;8.40;3.80;;;;;;;11.72;67.76;101313.38;5012734;28;20212;-63
2022/09/22 05:55:18;;;;;;;6.33;3.70;;;;;;;11.70;67.64;101310.84;5012560;28;20258;-63
2022/09/22 05:57:47;;;;;;;5.90;3.17;;;;;;;11.73;67.81;101312.41;5010564;28;20642;-63
2022/09/22 06:00:15;;;;;;;5.70;3.73;;;;;;;11.79;67.55;101314.53;5011400;28;20240;-63
2022/09/22 06:02:44;;;;;;;7.07;3.30;;;;;;;11.81;67.26;101317.91;5012350;28;20216;-63
2022/09/22 06:05:12;;;;;;;6.60;2.77;;;;;;;11.86;67.34;101323.69;5012373;28;20232;-63
2022/09/22 06:07:44;;;;;;;9.37;3.33;;;;;;;11.86;67.25;101323.69;5010398;28;20223;-63
2022/09/22 06:10:11;;;;;;;9.00;3.60;;;;;;;11.82;67.42;101316.94;5011172;28;20858;-63
2022/09/22 06:12:39;;;;;;;6.00;3.20;;;;;;;11.85;67.57;101322.00;4999207;28;20589;-63
2022/09/22 06:15:09;;;;;;;6.07;3.60;;;;;;;11.91;67.49;101319.63;5012092;28;20212;-63
2022/09/22 06:17:37;;;;;;;8.27;3.10;;;;;;;11.91;67.40;101321.44;5010577;28;20216;-63
2022/09/22 06:20:07;;;;;;;7.13;3.07;;;;;;;11.94;67.35;101322.03;5011082;28;20275;-63
2022/09/22 06:22:36;;;;;;;6.20;3.20;;;;;;;12.02;66.79;101318.69;5012224;28;20251;-63
2022/09/22 06:25:04;;;;;;;4.97;2.80;;;;;;;12.02;66.90;101329.31;5011702;28;20593;-63
2022/09/22 06:27:32;;;;;;;6.60;3.33;;;;;;;12.07;66.50;101319.94;5009963;28;20929;-63
2022/09/22 06:29:59;;;;;;;6.67;2.90;;;;;;;12.14;66.41;101319.41;5010462;28;20214;-62
2022/09/22 06:32:28;;;;;;;6.50;2.73;;;;;;;12.14;66.15;101317.56;5011773;28;20804;-63
2022/09/22 06:34:58;;;;;;;5.50;3.27;;;;;;;12.11;66.46;101317.84;5011854;28;20254;-63
2022/09/22 06:37:26;;;;;;;8.10;3.60;;;;;;;12.12;66.67;101314.22;5011122;28;20600;-62
2022/09/22 06:39:53;;;;;;;6.27;3.00;;;;;;;12.16;66.38;101315.63;5011877;28;20214;-63
2022/09/22 06:42:21;;;;;;;4.70;2.80;;;;;;;12.20;66.19;101319.69;5011872;28;20712;-63
2022/09/22 06:44:49;;;;;;;6.00;2.80;;;;;;;12.21;66.38;101320.53;5011395;28;20228;-64
2022/09/22 06:47:16;;;;;;;5.97;3.43;;;;;;;12.23;66.37;101315.91;5010247;28;20269;-61
2022/09/22 06:49:46;;;;;;;5.47;3.27;;;;;;;12.23;66.62;101314.06;5010207;28;20595;-63
2022/09/22 06:52:13;;;;;;;8.53;2.93;;;;;;;12.29;66.55;101316.22;5010951;28;20216;-62
2022/09/22 06:54:41;;;;;;;4.47;2.80;;;;;;;12.34;66.46;101311.31;5011554;28;20627;-62
2022/09/22 06:57:11;;;;;;;5.80;2.90;;;;;;;12.37;66.08;101315.50;5011103;28;20205;-63
2022/09/22 06:59:40;;;;;;;6.93;3.10;;;;;;;12.40;66.19;101315.25;5011238;28;20209;-63
2022/09/22 07:02:09;;;;;;;9.13;3.13;;;;;;;12.48;66.16;101309.22;5015571;28;20778;-63
2022/09/22 07:04:37;;;;;;;10.20;2.80;;;;;;;12.54;66.06;101313.97;5011498;28;20244;-63
2022/09/22 07:07:07;;;;;;;5.70;2.90;;;;;;;12.58;66.08;101315.34;5011495;28;20216;-63
2022/09/22 07:09:35;;;;;;;7.53;3.27;;;;;;;12.62;66.14;101316.75;5011206;28;20214;-63
2022/09/22 07:12:03;;;;;;;4.03;2.50;;;;;;;12.63;65.83;101318.44;5012217;28;20221;-63
2022/09/22 07:14:31;;;;;;;6.83;2.50;;;;;;;12.64;65.79;101317.47;5023606;28;20315;-63
2022/09/22 07:16:59;;;;;;;6.90;2.60;;;;;;;12.69;65.82;101316.06;5003663;28;20209;-63
2022/09/22 07:19:27;;;;;;;6.57;3.47;;;;;;;12.68;66.09;101321.50;5001591;28;20283;-63
2022/09/22 07:21:54;;;;;;;8.37;3.87;;;;;;;12.71;66.07;101316.75;5003754;28;20217;-63
2022/09/22 07:24:26;;;;;;;7.80;3.63;;;;;;;12.76;66.37;101318.97;5011471;28;20213;-63
2022/09/22 07:26:54;;;;;;;4.77;2.80;;;;;;;12.85;66.01;101311.97;5011068;28;20237;-63
2022/09/22 07:29:21;;;;;;;9.53;2.87;;;;;;;12.88;66.21;101315.19;5011110;28;20263;-63
2022/09/22 07:31:50;;;;;;;7.03;2.80;;;;;;;12.91;66.09;101312.25;5009674;28;20295;-62
2022/09/22 07:34:18;;;;;;;4.90;2.63;;;;;;;13.01;65.61;101313.09;5009406;28;20665;-62
2022/09/22 07:36:47;;;;;;;8.73;3.23;;;;;;;13.08;65.32;101308.84;5011372;28;20440;-62
2022/09/22 07:39:15;;;;;;;4.60;2.70;;;;;;;13.18;65.37;101315.03;5011112;28;20260;-62
2022/09/22 07:41:45;;;;;;;5.33;2.60;;;;;;;13.26;65.53;101311.66;5012712;28;20205;-63
2022/09/22 07:47:00;;;;;;;6.23;3.30;;;;;;;13.36;64.90;101322.28;5004321;28;20732;-63
2022/09/22 07:49:28;;;;;;;6.73;2.70;;;;;;;13.37;64.52;101308.78;5014778;28;20214;-63
2022/09/22 07:51:56;;;;;;;6.63;2.90;;;;;;;13.44;64.47;101314.38;5013705;28;20734;-63
2022/09/22 07:54:25;;;;;;;5.77;2.63;;;;;;;13.53;64.31;101313.50;5015258;28;20266;-63
2022/09/22 07:56:56;;;;;;;4.90;2.50;;;;;;;13.57;64.25;101314.88;5011361;28;20260;-63
2022/09/22 07:59:25;;;;;;;4.90;3.07;;;;;;;13.62;64.25;101314.47;5014511;28;20298;-64
2022/09/22 08:01:53;;;;;;;4.73;2.60;;;;;;;13.69;63.92;101310.22;5012615;28;20607;-64
2022/09/22 08:04:22;;;;;;;5.63;2.37;;;;;;;13.76;63.58;101313.97;5015648;28;20233;-62
2022/09/22 08:06:54;;;;;;;7.43;2.80;;;;;;;13.85;63.12;101307.72;5013552;28;20250;-63
2022/09/22 08:09:22;;;;;;;5.70;2.50;;;;;;;13.91;63.13;101313.31;5003601;28;20219;-62
2022/09/22 08:11:51;;;;;;;5.10;2.73;;;;;;;14.00;63.05;101310.72;5007290;28;20210;-62
2022/09/22 08:14:21;;;;;;;5.97;2.63;;;;;;;14.11;62.70;101313.19;5014232;28;20212;-63
2022/09/22 08:16:50;;;;;;;4.00;2.53;;;;;;;14.21;62.49;101319.28;5014987;28;20661;-62
2022/09/22 08:19:18;;;;;;;6.40;2.37;;;;;;;14.58;60.82;101314.69;5014513;28;20209;-62
2022/09/22 08:21:50;;;;;;;8.33;2.77;;;;;;;14.95;58.68;101314.47;5012300;28;20267;-62
2022/09/22 08:24:20;;;;;;;5.37;2.37;;;;;;;15.37;57.89;101317.25;5013291;28;20256;-62
2022/09/22 08:26:51;;;;;;;6.87;2.43;;;;;;;17.11;54.69;101320.84;5013965;28;20221;-62
2022/09/22 08:29:20;;;;;;;6.03;2.17;;;;;;;19.70;46.89;101315.56;5005975;28;20647;-62
2022/09/22 08:31:50;;;;;;;4.47;2.40;;;;;;;21.55;42.30;101318.16;5011964;28;20276;-62
2022/09/22 08:34:18;;;;;;;5.07;2.50;;;;;;;22.83;39.56;101301.97;5013183;28;20300;-63
2022/09/22 08:36:47;;;;;;;5.23;2.43;;;;;;;24.79;36.34;101303.28;5013425;28;20213;-62
2022/09/22 08:39:17;;;;;;;5.32;2.35;;;;;;;26.99;32.33;101298.44;5013684;28;20272;-63
2022/09/22 08:42:08;;;;;;;5.93;2.20;;;;;;;28.31;29.40;101291.16;5012448;28;20279;-63
2022/09/22 08:44:42;;;;;;;3.50;1.92;;;;;;;27.54;30.47;101294.25;5013848;28;20236;-63
2022/09/22 08:51:50;;;;;;;4.65;2.45;;;;;;;27.39;30.69;101299.34;5013583;28;20221;-63
2022/09/22 08:53:08;;;;;;;12.60;2.30;;;;;;;34.09;22.92;101279.13;5012115;28;20304;-63
2022/09/22 08:55:41;;;;;;;4.00;1.80;;;;;;;36.62;20.29;101280.88;5013758;28;20209;-64
2022/09/22 08:58:24;;;;;;;3.58;1.92;;;;;;;38.45;18.04;101277.09;5013327;28;20260;-64
2022/09/22 09:01:03;;;;;;;2.55;1.90;;;;;;;39.85;16.85;101271.50;5012156;28;20217;-64
2022/09/22 09:03:44;;;;;;;3.92;2.40;;;;;;;40.48;16.22;101261.69;5012199;28;20205;-64
2022/09/22 09:06:15;;;;;;;4.90;2.58;;;;;;;39.94;17.01;101263.19;5018448;28;20287;-64
2022/09/22 09:09:03;;;;;;;4.78;2.42;;;;;;;38.98;17.43;101261.28;5012693;28;20223;-64
2022/09/22 09:11:58;;;;;;;6.55;2.55;;;;;;;38.84;17.74;101268.88;5012085;28;20213;-64
2022/09/22 09:14:53;;;;;;;4.20;2.50;;;;;;;38.04;17.96;101272.53;5005537;28;20205;-64
2022/09/22 09:17:26;;;;;;;2.80;2.13;;;;;;;35.76;19.69;101268.41;5012494;28;20213;-64
2022/09/22 09:19:58;;;;;;;5.35;1.80;;;;;;;31.83;23.44;101281.91;5012820;28;20213;-63
2022/09/22 09:22:31;;;;;;;4.05;1.80;;;;;;;28.09;27.16;101278.19;5012202;28;20209;-63
2022/09/22 09:25:03;;;;;;;4.97;2.05;;;;;;;25.29;31.30;101293.22;5012674;28;20205;-63
2022/09/22 09:27:55;;;;;;;6.25;2.28;;;;;;;23.18;34.80;101291.72;5011798;28;20298;-62
2022/09/22 09:30:23;;;;;;;2.88;1.65;;;;;;;21.86;37.20;101290.72;5011278;28;20209;-62
2022/09/22 09:32:56;;;;;;;5.72;2.65;;;;;;;20.93;39.15;101291.22;5010223;28;20241;-63
2022/09/22 09:35:31;;;;;;;4.97;2.45;;;;;;;20.20;40.74;101290.50;5010769;28;20221;-63
2022/09/22 09:38:00;;;;;;;5.53;2.17;;;;;;;19.66;42.21;101290.06;5012381;28;20213;-63
2022/09/22 09:40:28;;;;;;;6.38;2.08;;;;;;;19.69;41.64;101287.03;5012219;28;20210;-63
2022/09/22 09:43:00;;;;;;;2.80;1.70;;;;;;;19.51;41.92;101278.50;5012209;28;20212;-63
2022/09/22 09:45:37;;;;;;;4.63;1.63;;;;;;;19.13;42.07;101281.25;5011388;28;20209;-63
2022/09/22 09:48:15;;;;;;;4.53;1.97;;;;;;;18.78;43.72;101279.25;5012364;28;20217;-63
2022/09/22 09:50:43;;;;;;;4.13;1.90;;;;;;;18.50;44.75;101272.75;5012123;28;20213;-63
2022/09/22 09:53:24;;;;;;;5.63;1.93;;;;;;;18.33;45.16;101272.88;5012605;28;20581;-62
2022/09/22 09:55:52;;;;;;;4.53;1.93;;;;;;;18.22;45.77;101270.59;5011207;28;20211;-63
2022/09/22 10:01:03;;;;;;;4.63;1.80;;;;;;;17.94;47.42;101272.16;5011316;28;20212;-62
2022/09/22 10:03:34;;;;;;;5.80;2.40;;;;;;;17.84;47.22;101266.16;5011893;28;20670;-62
2022/09/22 10:06:06;;;;;;;7.77;2.27;;;;;;;17.80;46.98;101267.50;5010742;28;20220;-63
2022/09/22 10:08:43;;;;;;;4.07;2.00;;;;;;;17.87;46.56;101260.41;5012328;28;20226;-62
2022/09/22 10:11:13;;;;;;;8.33;2.73;;;;;;;18.02;45.91;101258.69;5011749;28;20213;-63
2022/09/22 10:13:43;;;;;;;7.63;2.53;;;;;;;18.09;45.04;101262.31;5010623;28;20221;-63
2022/09/22 10:16:29;;;;;;;10.73;2.50;;;;;;;17.97;45.71;101255.66;5009543;28;20205;-63
2022/09/22 10:19:20;;;;;;;6.27;2.13;;;;;;;17.83;45.80;101248.38;5008585;28;20322;-63
2022/09/22 10:21:48;;;;;;;5.23;1.53;;;;;;;17.81;45.05;101245.03;5011106;28;20197;-62
2022/09/22 10:24:32;;;;;;;4.47;1.30;;;;;;;17.80;44.40;101248.72;5011761;28;20268;-62
2022/09/22 10:26:59;;;;;;;2.07;0.90;;;;;;;17.73;44.68;101247.75;5004240;28;20228;-62
2022/09/22 10:29:33;;;;;;;6.47;1.00;;;;;;;17.72;44.97;101241.56;5010325;28;20232;-63
2022/09/22 10:32:04;;;;;;;3.10;1.10;;;;;;;17.84;45.40;101245.53;5010643;28;20241;-63
2022/09/22 10:34:35;;;;;;;4.07;1.20;;;;;;;17.76;46.27;101242.91;5015842;28;20208;-63
2022/09/22 10:37:09;;;;;;;3.73;1.30;;;;;;;17.86;45.10;101242.66;5013448;28;20209;-62
2022/09/22 10:39:44;;;;;;;2.73;1.07;;;;;;;17.82;45.98;101246.72;5010982;28;20292;-62
2022/09/22 10:42:33;;;;;;;5.70;1.10;;;;;;;17.87;45.90;101247.00;5010706;28;20233;-62
2022/09/22 10:45:04;;;;;;;4.90;1.20;;;;;;;18.35;45.75;101244.00;4998394;28;20658;-63
2022/09/22 10:47:39;;;;;;;3.27;1.30;;;;;;;18.90;44.31;101236.66;5011637;28;20683;-63
2022/09/22 10:50:33;;;;;;;3.13;1.23;;;;;;;18.97;44.16;101243.78;5008422;28;20223;-63
2022/09/22 10:53:12;;;;;;;3.47;1.20;;;;;;;18.89;44.07;101238.50;4995628;28;20213;-63
2022/09/22 10:55:51;;;;;;;27.97;2.67;;;;;;;19.37;43.67;101230.88;5011379;28;20639;-62
2022/09/22 10:58:52;;;;;;;5.03;1.40;;;;;;;20.65;41.36;101224.66;5010629;28;20205;-62
2022/09/22 11:01:37;;;;;;;7.43;1.50;;;;;;;20.79;40.71;101224.72;5004677;28;20220;-64
2022/09/22 11:04:33;;;;;;;5.97;1.37;;;;;;;20.26;40.61;101224.25;5011243;28;20275;-64
2022/09/22 11:13:12;;;;;;;5.20;1.50;;;;;;;19.65;41.40;101215.75;4970968;28;20209;-64
2022/09/22 11:15:58;;;;;;;3.10;1.20;;;;;;;19.48;42.36;101208.94;5006496;28;20255;-63
2022/09/22 11:18:45;;;;;;;7.03;1.37;;;;;;;19.72;41.97;101205.06;5011263;28;20217;-64
2022/09/22 11:21:30;;;;;;;9.97;1.80;;;;;;;20.14;41.93;101205.09;5006248;28;20694;-64
2022/09/22 11:24:24;;;;;;;3.13;1.20;;;;;;;20.73;40.87;101209.34;5010976;28;20213;-64
2022/09/22 11:26:55;;;;;;;2.40;1.33;;;;;;;21.41;39.83;101197.72;5010753;28;20637;-64
2022/09/22 11:29:46;;;;;;;3.60;1.30;;;;;;;22.41;38.10;101189.66;5010112;28;20209;-64
2022/09/22 11:32:30;;;;;;;6.68;1.38;;;;;;;23.06;36.86;101195.19;5004178;28;20639;-64
2022/09/22 11:35:19;;;;;;;5.35;1.48;;;;;;;23.29;35.92;101182.00;4998912;28;20264;-64
2022/09/22 11:37:57;;;;;;;2.25;1.30;;;;;;;23.13;36.36;101187.91;5010293;28;20570;-62
2022/09/22 11:40:39;;;;;;;5.38;1.65;;;;;;;23.01;36.04;101184.19;5005643;28;20201;-63
2022/09/22 11:43:25;;;;;;;5.55;1.60;;;;;;;22.75;36.54;101180.50;5010270;28;20224;-63
2022/09/22 11:46:00;;;;;;;4.00;1.45;;;;;;;22.35;37.26;101184.22;5010425;28;20213;-63
2022/09/22 11:48:45;;;;;;;2.72;1.45;;;;;;;21.86;38.20;101180.00;4998337;28;20221;-63
2022/09/22 11:51:31;;;;;;;3.22;1.45;;;;;;;21.61;38.43;101178.91;5009896;28;20213;-64
2022/09/22 11:54:25;;;;;;;4.57;1.60;;;;;;;21.16;39.67;101175.81;5002975;28;20910;-63
2022/09/22 11:56:59;;;;;;;6.13;1.40;;;;;;;20.91;41.00;101164.69;5010139;28;20236;-63
2022/09/22 11:59:35;;;;;;;3.78;1.17;;;;;;;20.80;39.73;101162.53;5010903;28;20671;-63
2022/09/22 12:02:14;;;;;;;1.52;1.00;;;;;;;20.47;40.47;101161.50;5008412;28;20617;-63